Charlestown, Rhode Island
Current Conditions -  °F | °C
As of 5:53 AM on Friday 24 Oct 2014 (Local Time) from KWST Reporting Station
Overcast Overcast  
Wind Chill: 52°   Ceiling: 2100
Heat Index: 52°   Visibility: 10mi
Dew Point: 47°   Wind: 10mph
Humidity: 83%   Direction: 330°NNW
Pressure: 29.7"   Gusts: NA
Location:  41.38°N, 71.64°W
Report Text: KWST 240953Z AUTO 33009KT 10SM OVC021 11/08 A2970 RMK AO2 SLP056 T01110083
Loading
Personal Weather Stations






























Interactive Weather Map
Tropical Storm Tracking
New forecast layout! Learn more

10-Day Weather Forecast

Advertisements
Track Severe Weather on mobile